createdAt,value
2022-09-15T00:01:42.978Z,96483.16
2022-09-15T00:04:11.231Z,96482.20
2022-09-15T00:06:39.380Z,96481.78
2022-09-15T00:09:07.522Z,96475.79
2022-09-15T00:11:37.640Z,96469.10
2022-09-15T00:14:08.182Z,96458.82
2022-09-15T00:16:36.582Z,96457.96
2022-09-15T00:19:06.454Z,96457.82
2022-09-15T00:21:37.779Z,96461.41
2022-09-15T00:24:06.462Z,96467.25
2022-09-15T00:26:35.218Z,96461.95
2022-09-15T00:29:03.421Z,96465.59
2022-09-15T00:31:33.455Z,96465.95
2022-09-15T00:34:03.084Z,96463.23
2022-09-15T00:36:31.713Z,96458.99
2022-09-15T00:38:59.781Z,96450.70
2022-09-15T00:41:28.223Z,96462.59
2022-09-15T00:44:05.616Z,96448.64
2022-09-15T00:46:41.249Z,96458.37
2022-09-15T00:49:30.949Z,96454.28
2022-09-15T00:52:20.274Z,96452.73
2022-09-15T00:54:51.067Z,96436.98
2022-09-15T00:57:26.141Z,96434.58
2022-09-15T00:59:57.048Z,96430.56
2022-09-15T01:02:29.616Z,96428.56
2022-09-15T01:04:59.115Z,96425.11
2022-09-15T01:07:33.440Z,96429.11
2022-09-15T01:10:12.393Z,96423.98
2022-09-15T01:12:42.277Z,96418.64
2022-09-15T01:15:10.886Z,96417.70
2022-09-15T01:17:56.988Z,96422.11
2022-09-15T01:20:34.419Z,96420.86
2022-09-15T01:23:20.478Z,96413.05
2022-09-15T01:26:17.808Z,96406.67
2022-09-15T01:29:07.442Z,96403.77
2022-09-15T01:32:06.165Z,96407.53
2022-09-15T01:34:42.092Z,96409.26
2022-09-15T01:37:17.991Z,96403.27
2022-09-15T01:39:50.509Z,96399.06
2022-09-15T01:42:20.152Z,96399.59
2022-09-15T01:44:55.137Z,96389.73
2022-09-15T01:47:25.591Z,96389.85
2022-09-15T01:50:10.772Z,96388.90
2022-09-15T01:52:43.234Z,96379.18
2022-09-15T01:55:22.945Z,96384.44
2022-09-15T01:57:51.384Z,96378.08
2022-09-15T02:00:19.397Z,96372.75
2022-09-15T02:03:01.899Z,96372.77
2022-09-15T02:05:34.073Z,96352.13
2022-09-15T02:08:13.211Z,96351.27
2022-09-15T02:10:45.275Z,96352.17
2022-09-15T02:13:38.352Z,96348.16
2022-09-15T02:16:19.913Z,96349.86
2022-09-15T02:19:10.968Z,96345.43
2022-09-15T02:21:53.505Z,96349.61
2022-09-15T02:24:29.291Z,96353.88
2022-09-15T02:26:58.408Z,96338.78
2022-09-15T02:29:29.413Z,96334.02
2022-09-15T02:32:06.873Z,96344.98
2022-09-15T02:34:42.947Z,96338.81
2022-09-15T02:37:13.120Z,96345.42
2022-09-15T02:39:47.050Z,96347.73
2022-09-15T02:42:27.682Z,96339.32
2022-09-15T02:44:56.485Z,96325.86
2022-09-15T02:47:25.531Z,96323.80
2022-09-15T02:49:53.999Z,96315.58
2022-09-15T02:52:21.966Z,96312.44
2022-09-15T02:54:50.621Z,96308.87
2022-09-15T02:57:18.679Z,96305.82
2022-09-15T03:00:05.739Z,96298.72
2022-09-15T03:02:34.599Z,96298.42
2022-09-15T03:05:02.662Z,96285.45
2022-09-15T03:07:32.260Z,96285.73
2022-09-15T03:10:00.332Z,96278.02
2022-09-15T03:12:28.477Z,96270.76
2022-09-15T03:14:56.546Z,96288.52
2022-09-15T03:17:24.558Z,96287.73
2022-09-15T03:19:52.647Z,96295.50
2022-09-15T03:22:20.695Z,96289.42
2022-09-15T03:24:48.714Z,96289.91
2022-09-15T03:27:16.737Z,96282.02
2022-09-15T03:29:44.965Z,96292.37
2022-09-15T03:32:12.877Z,96293.79
2022-09-15T03:34:40.914Z,96292.63
2022-09-15T03:37:09.020Z,96292.27
2022-09-15T03:39:37.599Z,96287.16
2022-09-15T03:42:08.058Z,96274.90
2022-09-15T03:44:36.061Z,96276.56
2022-09-15T03:47:04.284Z,96276.27
2022-09-15T03:49:32.224Z,96265.76
2022-09-15T03:52:00.214Z,96263.35
2022-09-15T03:54:28.190Z,96255.86
2022-09-15T03:56:56.310Z,96248.70
2022-09-15T03:59:24.359Z,96251.69
2022-09-15T04:01:52.595Z,96251.04
2022-09-15T04:04:20.614Z,96240.12
2022-09-15T04:06:48.620Z,96230.44
2022-09-15T04:09:16.605Z,96235.38
2022-09-15T04:11:44.683Z,96232.23
2022-09-15T04:14:12.983Z,96234.65
2022-09-15T04:16:41.140Z,96229.48
2022-09-15T04:19:09.506Z,96224.19
2022-09-15T04:21:37.621Z,96218.36
2022-09-15T04:24:06.108Z,96217.52
2022-09-15T04:26:36.360Z,96218.92
2022-09-15T04:29:11.564Z,96222.23
2022-09-15T04:31:39.790Z,96225.52
2022-09-15T04:34:07.899Z,96233.11
2022-09-15T04:36:37.374Z,96241.67
2022-09-15T04:39:06.708Z,96244.10
2022-09-15T04:41:34.862Z,96249.58
2022-09-15T04:44:03.077Z,96253.73
2022-09-15T04:46:31.329Z,96259.05
2022-09-15T04:48:59.398Z,96268.42
2022-09-15T04:51:27.559Z,96271.60
2022-09-15T04:53:55.851Z,96273.15
2022-09-15T04:56:25.911Z,96259.55
2022-09-15T04:59:03.816Z,96243.72
2022-09-15T05:01:35.621Z,96227.18
2022-09-15T05:04:04.844Z,96208.39
2022-09-15T05:06:35.124Z,96198.70
2022-09-15T05:09:10.049Z,96200.32
2022-09-15T05:11:38.985Z,96201.23
2022-09-15T05:14:08.399Z,96201.82
2022-09-15T05:16:36.630Z,96213.45
2022-09-15T05:19:04.913Z,96227.58
2022-09-15T05:21:33.208Z,96227.66
2022-09-15T05:24:01.634Z,96237.38
2022-09-15T05:26:30.613Z,96239.42
2022-09-15T05:28:58.680Z,96241.23
2022-09-15T05:31:31.195Z,96236.80
2022-09-15T05:34:05.582Z,96239.20
2022-09-15T05:36:34.067Z,96244.72
2022-09-15T05:39:02.259Z,96237.71
2022-09-15T05:41:30.970Z,96230.85
2022-09-15T05:43:59.448Z,96225.18
2022-09-15T05:46:29.206Z,96230.38
2022-09-15T05:48:58.949Z,96236.27
2022-09-15T05:51:27.838Z,96238.04
2022-09-15T05:53:56.258Z,96245.42
2022-09-15T05:56:24.267Z,96250.58
2022-09-15T05:58:52.536Z,96240.93
2022-09-15T06:01:23.824Z,96248.00
2022-09-15T06:03:53.510Z,96244.52
2022-09-15T06:06:24.059Z,96244.90
2022-09-15T06:08:57.939Z,96243.88
2022-09-15T06:11:29.101Z,96245.16
2022-09-15T06:14:03.137Z,96250.69
2022-09-15T06:16:34.700Z,96259.25
2022-09-15T06:19:03.640Z,96259.90
2022-09-15T06:21:33.427Z,96268.09
2022-09-15T06:24:04.693Z,96268.90
2022-09-15T06:26:33.722Z,96272.86
2022-09-15T06:29:03.942Z,96283.10
2022-09-15T06:31:34.217Z,96289.70
2022-09-15T06:34:04.058Z,96287.98
2022-09-15T06:36:32.941Z,96289.36
2022-09-15T06:39:01.036Z,96287.38
2022-09-15T06:41:35.353Z,96282.36
2022-09-15T06:44:15.103Z,96286.80
2022-09-15T06:46:43.337Z,96290.63
2022-09-15T06:49:11.401Z,96297.29
2022-09-15T06:51:39.516Z,96305.45
2022-09-15T06:54:07.547Z,96308.20
2022-09-15T06:56:38.076Z,96315.59
2022-09-15T06:59:06.737Z,96315.14
2022-09-15T07:01:39.252Z,96309.85
2022-09-15T07:04:10.913Z,96310.56
2022-09-15T07:06:40.217Z,96315.63
2022-09-15T07:09:08.492Z,96328.63
2022-09-15T07:11:36.575Z,96335.05
2022-09-15T07:14:05.080Z,96341.13
2022-09-15T07:16:33.615Z,96345.64
2022-09-15T07:19:03.853Z,96356.72
2022-09-15T07:21:32.250Z,96354.47
2022-09-15T07:24:03.826Z,96354.84
2022-09-15T07:26:35.405Z,96349.35
2022-09-15T07:29:06.023Z,96358.97
2022-09-15T07:31:36.736Z,96365.59
2022-09-15T07:34:05.285Z,96361.73
2022-09-15T07:36:33.630Z,96366.55
2022-09-15T07:39:03.897Z,96375.05
2022-09-15T07:41:33.196Z,96387.29
2022-09-15T07:44:01.410Z,96392.67
2022-09-15T07:46:32.235Z,96391.00
2022-09-15T07:49:03.188Z,96391.77
2022-09-15T07:51:31.774Z,96391.02
2022-09-15T07:54:00.363Z,96401.30
2022-09-15T07:56:28.374Z,96399.08
2022-09-15T07:58:57.071Z,96398.26
2022-09-15T08:01:25.217Z,96407.88
2022-09-15T08:03:53.596Z,96428.09
2022-09-15T08:06:24.322Z,96434.23
2022-09-15T08:08:57.693Z,96423.95
2022-09-15T08:11:29.071Z,96421.04
2022-09-15T08:14:01.640Z,96427.36
2022-09-15T08:16:30.001Z,96430.17
2022-09-15T08:18:59.528Z,96431.38
2022-09-15T08:21:28.434Z,96439.23
2022-09-15T08:23:58.921Z,96443.70
2022-09-15T08:26:28.390Z,96446.06
2022-09-15T08:28:56.466Z,96451.89
2022-09-15T08:31:25.210Z,96453.21
2022-09-15T08:33:55.509Z,96447.85
2022-09-15T08:36:28.036Z,96441.15
2022-09-15T08:38:56.912Z,96451.88
2022-09-15T08:41:29.792Z,96449.23
2022-09-15T08:44:08.525Z,96448.02
2022-09-15T08:47:10.362Z,96442.84
2022-09-15T08:50:01.585Z,96443.80
2022-09-15T08:52:39.446Z,96441.08
2022-09-15T08:55:17.940Z,96438.89
2022-09-15T08:57:45.979Z,96438.98
2022-09-15T09:00:16.811Z,96437.37
2022-09-15T09:03:03.791Z,96439.91
2022-09-15T09:05:44.330Z,96446.08
2022-09-15T09:08:34.057Z,96453.48
2022-09-15T09:11:40.991Z,96453.86
2022-09-15T09:14:29.063Z,96451.55
2022-09-15T09:17:12.342Z,96454.11
2022-09-15T09:19:49.301Z,96455.55
2022-09-15T09:22:23.253Z,96457.47
2022-09-15T09:24:58.033Z,96457.73
2022-09-15T09:27:36.148Z,96459.02
2022-09-15T09:30:17.740Z,96460.58
2022-09-15T09:33:15.471Z,96459.66
2022-09-15T09:35:47.041Z,96461.53
2022-09-15T09:38:44.315Z,96459.22
2022-09-15T09:41:17.127Z,96450.34
2022-09-15T09:43:47.834Z,96452.06
2022-09-15T09:46:20.483Z,96455.84
2022-09-15T09:49:13.543Z,96470.97
2022-09-15T09:51:53.080Z,96474.81
2022-09-15T09:54:25.176Z,96473.30
2022-09-15T09:56:54.644Z,96473.55
2022-09-15T09:59:35.264Z,96474.05
2022-09-15T10:02:12.098Z,96465.84
2022-09-15T10:04:48.721Z,96466.67
2022-09-15T10:07:21.598Z,96469.01
2022-09-15T10:09:55.762Z,96460.61
2022-09-15T10:12:38.758Z,96454.32
2022-09-15T10:15:19.743Z,96451.61
2022-09-15T10:17:49.589Z,96447.09
2022-09-15T10:20:25.915Z,96447.16
2022-09-15T10:23:24.726Z,96448.15
2022-09-15T10:25:59.961Z,96445.66
2022-09-15T10:28:29.005Z,96439.54
2022-09-15T10:31:25.985Z,96442.17
2022-09-15T10:33:54.251Z,96442.66
2022-09-15T10:36:32.395Z,96444.65
2022-09-15T10:39:28.510Z,96440.77
2022-09-15T10:42:07.254Z,96442.63
2022-09-15T10:44:52.618Z,96442.61
2022-09-15T10:47:49.652Z,96436.15
2022-09-15T10:50:25.987Z,96433.70
2022-09-15T10:53:29.352Z,96437.11
2022-09-15T10:56:12.952Z,96438.98
2022-09-15T10:58:48.559Z,96433.45
2022-09-15T11:01:33.328Z,96429.27
2022-09-15T11:04:26.174Z,96424.77
2022-09-15T11:07:31.657Z,96413.83
2022-09-15T11:10:21.064Z,96406.75
2022-09-15T11:13:17.569Z,96409.02
2022-09-15T11:15:48.222Z,96407.01
2022-09-15T11:18:40.827Z,96393.84
2022-09-15T11:21:36.495Z,96387.69
2022-09-15T11:24:31.761Z,96378.26
2022-09-15T11:27:19.032Z,96373.15
2022-09-15T11:29:46.968Z,96372.68
2022-09-15T11:32:25.120Z,96367.69
2022-09-15T11:35:08.256Z,96373.61
2022-09-15T11:37:43.869Z,96379.89
2022-09-15T11:40:28.999Z,96386.35
2022-09-15T11:43:03.920Z,96385.73
2022-09-15T11:45:43.752Z,96383.47
2022-09-15T11:48:21.878Z,96380.63
2022-09-15T11:50:56.496Z,96375.52
2022-09-15T11:53:38.544Z,96377.32
2022-09-15T11:56:24.779Z,96377.16
2022-09-15T11:59:27.680Z,96375.53
2022-09-15T12:01:59.453Z,96379.45
2022-09-15T12:04:33.428Z,96386.77
2022-09-15T12:07:20.428Z,96386.17
2022-09-15T12:09:50.004Z,96383.59
2022-09-15T12:12:21.698Z,96381.03
2022-09-15T12:14:53.179Z,96371.43
2022-09-15T12:17:30.142Z,96371.20
2022-09-15T12:20:14.539Z,96368.60
2022-09-15T12:23:01.672Z,96371.77
2022-09-15T12:25:41.536Z,96367.36
2022-09-15T12:28:38.674Z,96367.66
2022-09-15T12:31:14.629Z,96365.34
2022-09-15T12:33:42.775Z,96369.30
2022-09-15T12:36:46.326Z,96370.64
2022-09-15T12:39:43.483Z,96361.90
2022-09-15T12:42:26.742Z,96358.91
2022-09-15T12:44:59.027Z,96351.95
2022-09-15T12:47:29.874Z,96358.38
2022-09-15T12:50:26.726Z,96360.48
2022-09-15T12:53:04.070Z,96357.23
2022-09-15T12:55:37.986Z,96352.23
2022-09-15T12:58:15.767Z,96354.31
2022-09-15T13:06:23.605Z,96343.60
2022-09-15T13:09:02.211Z,96346.11
2022-09-15T13:11:50.244Z,96333.98
2022-09-15T13:14:28.101Z,96327.20
2022-09-15T13:17:14.391Z,96320.31
2022-09-15T13:19:57.770Z,96329.89
2022-09-15T13:22:34.292Z,96325.55
2022-09-15T13:25:05.158Z,96320.27
2022-09-15T13:27:58.354Z,96319.89
2022-09-15T13:31:02.735Z,96324.23
2022-09-15T13:39:59.945Z,96314.73
2022-09-15T13:42:57.843Z,96319.24
2022-09-15T13:45:50.823Z,96311.81
2022-09-15T13:48:33.418Z,96320.05
2022-09-15T13:51:12.844Z,96327.57
2022-09-15T13:53:45.356Z,96327.91
2022-09-15T13:56:28.028Z,96318.64
2022-09-15T13:59:10.552Z,96316.31
2022-09-15T14:01:43.205Z,96313.05
2022-09-15T14:04:22.502Z,96317.90
2022-09-15T14:06:57.088Z,96320.03
2022-09-15T14:09:31.940Z,96323.42
2022-09-15T14:12:05.193Z,96312.48
2022-09-15T14:14:47.189Z,96315.73
2022-09-15T14:17:34.534Z,96312.45
2022-09-15T14:20:04.792Z,96298.05
2022-09-15T14:22:34.680Z,96292.91
2022-09-15T14:25:09.337Z,96290.04
2022-09-15T14:27:43.271Z,96278.48
2022-09-15T14:30:29.441Z,96267.86
2022-09-15T14:33:02.931Z,96265.08
2022-09-15T14:35:37.937Z,96269.54
2022-09-15T14:38:05.978Z,96267.86
2022-09-15T14:40:39.480Z,96257.22
2022-09-15T14:43:29.316Z,96254.95
2022-09-15T14:46:13.901Z,96259.64
2022-09-15T14:48:42.115Z,96260.95
2022-09-15T14:51:33.233Z,96251.95
2022-09-15T14:54:05.611Z,96256.72
2022-09-15T14:56:37.924Z,96252.13
2022-09-15T14:59:14.669Z,96254.23
2022-09-15T15:02:02.933Z,96259.85
2022-09-15T15:04:44.022Z,96260.97
2022-09-15T15:07:12.819Z,96257.35
2022-09-15T15:09:54.622Z,96257.66
2022-09-15T15:12:27.157Z,96258.20
2022-09-15T15:14:56.753Z,96251.06
2022-09-15T15:17:55.041Z,96254.00
2022-09-15T15:20:27.083Z,96260.87
2022-09-15T15:23:17.020Z,96253.10
2022-09-15T15:25:47.073Z,96243.94
2022-09-15T15:28:36.008Z,96239.67
2022-09-15T15:31:18.238Z,96236.42
2022-09-15T15:33:53.207Z,96237.38
2022-09-15T15:36:24.194Z,96235.77
2022-09-15T15:39:22.001Z,96239.59
2022-09-15T15:42:03.018Z,96244.15
2022-09-15T15:44:31.854Z,96245.02
2022-09-15T15:47:02.843Z,96241.72
2022-09-15T15:49:32.766Z,96235.72
2022-09-15T15:52:01.981Z,96232.96
2022-09-15T15:54:33.783Z,96232.80
2022-09-15T15:57:24.869Z,96234.36
2022-09-15T15:59:59.049Z,96235.15
2022-09-15T16:02:28.008Z,96235.73
2022-09-15T16:04:56.174Z,96237.84
2022-09-15T16:07:31.097Z,96236.66
2022-09-15T16:10:01.629Z,96232.05
2022-09-15T16:12:31.997Z,96223.73
2022-09-15T16:15:10.613Z,96217.21
2022-09-15T16:17:40.892Z,96215.84
2022-09-15T16:20:13.181Z,96223.63
2022-09-15T16:22:41.446Z,96216.90
2022-09-15T16:25:16.084Z,96223.15
2022-09-15T16:27:44.583Z,96216.54
2022-09-15T16:30:12.626Z,96219.58
2022-09-15T16:32:43.312Z,96218.53
2022-09-15T16:35:28.112Z,96211.69
2022-09-15T16:37:56.231Z,96213.63
2022-09-15T16:40:24.518Z,96209.60
2022-09-15T16:42:52.834Z,96208.23
2022-09-15T16:45:38.145Z,96213.14
2022-09-15T16:48:13.024Z,96211.78
2022-09-15T16:50:50.493Z,96215.31
2022-09-15T16:53:26.810Z,96222.70
2022-09-15T16:55:57.587Z,96222.08
2022-09-15T16:58:25.806Z,96218.00
2022-09-15T17:00:54.117Z,96215.61
2022-09-15T17:03:24.711Z,96219.70
2022-09-15T17:05:59.570Z,96221.80
2022-09-15T17:08:30.612Z,96220.92
2022-09-15T17:11:01.785Z,96230.70
2022-09-15T17:13:33.447Z,96234.92
2022-09-15T17:16:02.640Z,96227.73
2022-09-15T17:18:30.931Z,96224.94
2022-09-15T17:20:59.691Z,96224.05
2022-09-15T17:23:35.050Z,96225.59
2022-09-15T17:26:06.528Z,96227.94
2022-09-15T17:28:36.670Z,96235.77
2022-09-15T17:31:12.350Z,96236.06
2022-09-15T17:33:41.140Z,96231.45
2022-09-15T17:36:09.220Z,96213.80
2022-09-15T17:38:37.270Z,96227.95
2022-09-15T17:41:05.590Z,96228.85
2022-09-15T17:43:33.632Z,96223.79
2022-09-15T17:46:01.747Z,96216.32
2022-09-15T17:48:29.810Z,96208.85
2022-09-15T17:50:58.525Z,96188.58
2022-09-15T17:53:30.829Z,96169.48
2022-09-15T17:55:59.011Z,96162.50
2022-09-15T17:58:29.988Z,96166.70
2022-09-15T18:00:58.668Z,96156.83
2022-09-15T18:03:36.070Z,96161.68
2022-09-15T18:06:07.105Z,96179.88
2022-09-15T18:08:36.216Z,96177.33
2022-09-15T18:11:06.364Z,96175.91
2022-09-15T18:13:34.974Z,96170.39
2022-09-15T18:16:05.363Z,96172.81
2022-09-15T18:18:34.339Z,96186.59
2022-09-15T18:21:09.828Z,96186.91
2022-09-15T18:23:39.322Z,96181.45
2022-09-15T18:26:07.519Z,96178.34
2022-09-15T18:28:35.711Z,96170.49
2022-09-15T18:31:03.871Z,96162.08
2022-09-15T18:33:32.101Z,96168.61
2022-09-15T18:36:00.200Z,96168.88
2022-09-15T18:38:28.187Z,96167.15
2022-09-15T18:40:57.759Z,96161.95
2022-09-15T18:43:28.467Z,96161.81
2022-09-15T18:46:00.654Z,96156.40
2022-09-15T18:48:30.943Z,96159.13
2022-09-15T18:50:58.983Z,96156.15
2022-09-15T18:53:27.252Z,96146.23
2022-09-15T18:55:55.329Z,96134.77
2022-09-15T18:58:24.304Z,96131.46
2022-09-15T19:00:52.227Z,96132.26
2022-09-15T19:03:20.193Z,96131.88
2022-09-15T19:05:48.650Z,96127.89
2022-09-15T19:08:17.241Z,96128.88
2022-09-15T19:10:45.319Z,96124.30
2022-09-15T19:13:14.345Z,96119.52
2022-09-15T19:15:44.271Z,96120.30
2022-09-15T19:18:12.930Z,96124.86
2022-09-15T19:20:40.976Z,96131.63
2022-09-15T19:23:09.750Z,96135.64
2022-09-15T19:25:38.130Z,96139.52
2022-09-15T19:28:06.090Z,96138.84
2022-09-15T19:30:35.081Z,96145.45
2022-09-15T19:33:05.740Z,96144.15
2022-09-15T19:35:33.984Z,96127.60
2022-09-15T19:38:02.047Z,96140.13
2022-09-15T19:40:30.303Z,96144.51
2022-09-15T19:42:58.261Z,96140.55
2022-09-15T19:45:26.913Z,96146.04
2022-09-15T19:47:55.020Z,96149.56
2022-09-15T19:50:23.433Z,96148.32
2022-09-15T19:52:52.699Z,96149.94
2022-09-15T19:55:23.294Z,96145.41
2022-09-15T19:57:51.380Z,96144.02
2022-09-15T20:00:19.350Z,96142.33
2022-09-15T20:02:48.802Z,96140.67
2022-09-15T20:05:16.816Z,96138.02
2022-09-15T20:07:47.237Z,96143.10
2022-09-15T20:10:16.371Z,96141.58
2022-09-15T20:12:44.843Z,96141.96
2022-09-15T20:15:12.952Z,96138.46
2022-09-15T20:17:42.542Z,96136.36
2022-09-15T20:20:11.967Z,96134.37
2022-09-15T20:22:40.943Z,96141.38
2022-09-15T20:25:09.028Z,96137.67
2022-09-15T20:27:37.599Z,96138.73
2022-09-15T20:30:06.923Z,96146.00
2022-09-15T20:32:35.123Z,96153.56
2022-09-15T20:35:03.576Z,96161.61
2022-09-15T20:37:36.653Z,96161.45
2022-09-15T20:40:08.640Z,96160.85
2022-09-15T20:42:37.209Z,96161.67
2022-09-15T20:45:06.724Z,96167.59
2022-09-15T20:47:34.753Z,96173.98
2022-09-15T20:50:06.905Z,96172.76
2022-09-15T20:52:38.434Z,96177.88
2022-09-15T20:55:07.027Z,96172.48
2022-09-15T20:57:37.255Z,96168.35
2022-09-15T22:31:31.208Z,96195.61
2022-09-15T22:33:59.159Z,96196.27
2022-09-15T22:36:30.172Z,96190.27
2022-09-15T22:39:05.291Z,96184.54
2022-09-15T22:41:37.205Z,96181.81
2022-09-15T22:44:06.065Z,96185.67
2022-09-15T22:46:35.102Z,96189.48
2022-09-15T22:49:03.670Z,96186.02
2022-09-15T22:51:31.555Z,96190.31
2022-09-15T22:53:59.700Z,96189.29
2022-09-15T22:56:27.504Z,96190.94
2022-09-15T22:58:56.666Z,96188.81
2022-09-15T23:01:27.058Z,96183.92
2022-09-15T23:03:56.309Z,96190.27
2022-09-15T23:06:26.097Z,96186.39
2022-09-15T23:08:55.419Z,96187.82
2022-09-15T23:11:24.151Z,96187.83
2022-09-15T23:13:52.324Z,96187.64
2022-09-15T23:16:20.590Z,96182.52
2022-09-15T23:18:49.265Z,96175.70
2022-09-15T23:21:17.470Z,96173.03
2022-09-15T23:23:46.775Z,96169.48
2022-09-15T23:26:17.199Z,96169.06
2022-09-15T23:28:45.232Z,96173.19
2022-09-15T23:31:13.967Z,96180.38
2022-09-15T23:33:42.808Z,96184.83
2022-09-15T23:36:15.345Z,96189.90
2022-09-15T23:38:43.920Z,96185.21
2022-09-15T23:41:12.567Z,96174.66
2022-09-15T23:43:40.858Z,96174.48
2022-09-15T23:46:09.578Z,96167.64
2022-09-15T23:48:38.006Z,96164.25
2022-09-15T23:51:05.899Z,96164.66
2022-09-15T23:53:34.068Z,96165.80
2022-09-15T23:56:01.991Z,96160.95
2022-09-15T23:58:29.965Z,96157.45
